Time;durP1;ratioP1;P1;durP2;ratioP2;P2;SDS_P1;SDS_P2;PMS_P1;PMS_P2;Temp;Humidity;BMP_temperature;BMP_pressure;BME280_temperature;BME280_humidity;BME280_pressure;Samples;Min_cycle;Max_cycle;Signal;HPM_P1;HPM_P2
2024/04/15 00:02:14;;;;;;;7.22;1.88;;;;;;;;;;5507023;25;19997;-72
2024/04/15 00:04:40;;;;;;;11.70;3.08;;;;;;;;;;5515881;25;20002;-74
2024/04/15 00:07:06;;;;;;;5.75;1.85;;;;;;;;;;5513159;25;20009;-73
2024/04/15 00:09:32;;;;;;;5.85;1.70;;;;;;;;;;5507891;26;20435;-72
2024/04/15 00:11:58;;;;;;;5.03;2.15;;;;;;;;;;5517171;25;20009;-73
2024/04/15 00:14:24;;;;;;;10.48;2.45;;;;;;;;;;5513478;26;20064;-73
2024/04/15 00:16:50;;;;;;;7.57;1.90;;;;;;;;;;5523224;25;20415;-72
2024/04/15 00:19:16;;;;;;;6.13;1.88;;;;;;;;;;5523052;25;20004;-72
2024/04/15 00:21:42;;;;;;;5.80;2.17;;;;;;;;;;5523814;25;20001;-73
2024/04/15 00:24:08;;;;;;;6.72;1.90;;;;;;;;;;5507192;25;20356;-73
2024/04/15 00:26:34;;;;;;;8.52;2.55;;;;;;;;;;5505805;26;20004;-73
2024/04/15 00:29:00;;;;;;;4.38;1.90;;;;;;;;;;5493176;25;19998;-73
2024/04/15 00:31:26;;;;;;;3.78;2.50;;;;;;;;;;5499325;26;20372;-72
2024/04/15 00:33:53;;;;;;;3.72;1.73;;;;;;;;;;5505298;26;20009;-73
2024/04/15 00:36:19;;;;;;;8.48;2.35;;;;;;;;;;5505304;26;20402;-73
2024/04/15 00:38:45;;;;;;;4.97;2.03;;;;;;;;;;5491527;26;20070;-73
2024/04/15 00:41:11;;;;;;;3.83;1.45;;;;;;;;;;5514734;26;20013;-73
2024/04/15 00:43:37;;;;;;;6.18;2.10;;;;;;;;;;5510456;25;19993;-73
2024/04/15 00:46:04;;;;;;;6.03;2.05;;;;;;;;;;5515608;26;20053;-73
2024/04/15 00:48:31;;;;;;;4.22;2.70;;;;;;;;;;5510760;25;20452;-72
2024/04/15 00:50:57;;;;;;;4.25;1.88;;;;;;;;;;5507076;25;20008;-73
2024/04/15 00:53:23;;;;;;;5.32;1.85;;;;;;;;;;5524019;25;20012;-73
2024/04/15 00:55:51;;;;;;;4.88;2.08;;;;;;;;;;5513248;25;19998;-72
2024/04/15 00:58:17;;;;;;;4.90;2.13;;;;;;;;;;5521539;25;20009;-72
2024/04/15 01:00:44;;;;;;;6.90;2.03;;;;;;;;;;5508644;26;20001;-72
2024/04/15 01:03:10;;;;;;;7.60;2.55;;;;;;;;;;5516879;25;20009;-73
2024/04/15 01:05:36;;;;;;;5.57;2.17;;;;;;;;;;5503411;25;20009;-73
2024/04/15 01:08:03;;;;;;;6.10;2.20;;;;;;;;;;5503779;26;20398;-72
2024/04/15 01:10:29;;;;;;;3.65;1.67;;;;;;;;;;5494984;26;20452;-72
2024/04/15 01:12:55;;;;;;;7.07;2.03;;;;;;;;;;5495974;25;20005;-73
2024/04/15 01:15:21;;;;;;;6.80;2.20;;;;;;;;;;5503298;26;20336;-73
2024/04/15 01:17:47;;;;;;;4.03;2.30;;;;;;;;;;5498656;26;19998;-73
2024/04/15 01:20:13;;;;;;;5.18;1.80;;;;;;;;;;5491709;26;20009;-73
2024/04/15 01:22:43;;;;;;;10.93;2.55;;;;;;;;;;5501104;25;20013;-73
2024/04/15 01:25:09;;;;;;;6.30;2.50;;;;;;;;;;5499065;26;20070;-73
2024/04/15 01:27:37;;;;;;;8.55;2.88;;;;;;;;;;5491227;25;20130;-73
2024/04/15 01:30:03;;;;;;;4.25;2.03;;;;;;;;;;5501413;26;20013;-72
2024/04/15 01:32:29;;;;;;;8.38;2.85;;;;;;;;;;5501057;26;20363;-72
2024/04/15 01:34:55;;;;;;;7.10;2.08;;;;;;;;;;5489926;25;20445;-73
2024/04/15 01:37:21;;;;;;;6.25;2.05;;;;;;;;;;5506318;26;20008;-73
2024/04/15 01:39:47;;;;;;;8.27;2.40;;;;;;;;;;5515211;25;20002;-73
2024/04/15 01:42:13;;;;;;;11.77;2.58;;;;;;;;;;5520541;26;20468;-72
2024/04/15 01:44:39;;;;;;;7.80;2.70;;;;;;;;;;5510148;25;20078;-73
2024/04/15 01:47:05;;;;;;;5.00;2.20;;;;;;;;;;5510335;25;20009;-72
2024/04/15 01:49:31;;;;;;;6.60;2.80;;;;;;;;;;5522282;26;20004;-73
2024/04/15 01:51:57;;;;;;;7.95;2.55;;;;;;;;;;5501534;25;20017;-74
2024/04/15 01:54:23;;;;;;;7.07;2.35;;;;;;;;;;5489260;26;19994;-72
2024/04/15 01:56:49;;;;;;;4.50;1.85;;;;;;;;;;5488229;26;19994;-72
2024/04/15 01:59:15;;;;;;;8.65;2.08;;;;;;;;;;5486323;26;20012;-72
2024/04/15 02:01:41;;;;;;;7.90;2.90;;;;;;;;;;5500698;25;20070;-73
2024/04/15 02:04:07;;;;;;;4.03;2.22;;;;;;;;;;5491122;26;19994;-72
2024/04/15 02:06:33;;;;;;;6.22;2.08;;;;;;;;;;5524045;26;20008;-72
2024/04/15 02:08:59;;;;;;;4.60;1.67;;;;;;;;;;5506592;25;20013;-72
2024/04/15 02:11:25;;;;;;;6.90;2.15;;;;;;;;;;5490262;25;20002;-72
2024/04/15 02:13:51;;;;;;;5.78;2.10;;;;;;;;;;5517972;25;20009;-72
2024/04/15 02:16:17;;;;;;;5.25;2.28;;;;;;;;;;5506200;26;20070;-73
2024/04/15 02:18:43;;;;;;;5.25;2.38;;;;;;;;;;5490468;26;20456;-72
2024/04/15 02:21:09;;;;;;;5.00;2.10;;;;;;;;;;5525112;25;20038;-72
2024/04/15 02:23:35;;;;;;;6.45;1.77;;;;;;;;;;5504136;25;20012;-72
2024/04/15 02:26:01;;;;;;;9.60;2.28;;;;;;;;;;5496776;26;20332;-72
2024/04/15 02:28:27;;;;;;;4.68;1.80;;;;;;;;;;5524489;25;20073;-73
2024/04/15 02:30:53;;;;;;;6.50;2.15;;;;;;;;;;5521948;26;20400;-73
2024/04/15 02:33:20;;;;;;;5.97;2.78;;;;;;;;;;5524168;25;20008;-73
2024/04/15 02:35:46;;;;;;;4.47;2.20;;;;;;;;;;5502769;25;19998;-73
2024/04/15 02:38:12;;;;;;;9.25;2.50;;;;;;;;;;5505638;26;20107;-73
2024/04/15 02:40:39;;;;;;;9.20;2.47;;;;;;;;;;5525024;25;20401;-72
2024/04/15 02:43:05;;;;;;;6.63;2.63;;;;;;;;;;5488483;25;20002;-73
2024/04/15 02:45:31;;;;;;;7.25;3.95;;;;;;;;;;5497794;26;19997;-73
2024/04/15 02:47:57;;;;;;;5.43;2.58;;;;;;;;;;5523608;25;20006;-72
2024/04/15 02:50:23;;;;;;;8.18;3.08;;;;;;;;;;5496573;25;20009;-72
2024/04/15 02:52:49;;;;;;;5.70;2.20;;;;;;;;;;5495160;26;19997;-73
2024/04/15 02:55:15;;;;;;;6.43;2.40;;;;;;;;;;5522146;25;20097;-73
2024/04/15 02:57:41;;;;;;;6.70;2.90;;;;;;;;;;5509147;26;20500;-74
2024/04/15 03:00:07;;;;;;;4.50;2.20;;;;;;;;;;5520716;25;20005;-74
2024/04/15 03:02:33;;;;;;;6.95;2.22;;;;;;;;;;5487742;26;20002;-73
2024/04/15 03:05:00;;;;;;;6.63;2.53;;;;;;;;;;5518709;25;20001;-73
2024/04/15 03:07:26;;;;;;;7.35;2.45;;;;;;;;;;5509145;25;19994;-73
2024/04/15 03:09:55;;;;;;;3.90;2.50;;;;;;;;;;5486664;26;19994;-73
2024/04/15 03:12:21;;;;;;;6.18;2.90;;;;;;;;;;5523460;25;20024;-72
2024/04/15 03:14:47;;;;;;;3.65;1.95;;;;;;;;;;5500474;25;19998;-73
2024/04/15 03:17:13;;;;;;;7.93;3.00;;;;;;;;;;5485946;26;19994;-73
2024/04/15 03:19:39;;;;;;;8.18;3.63;;;;;;;;;;5521290;25;19997;-73
2024/04/15 03:22:05;;;;;;;5.20;2.20;;;;;;;;;;5503946;25;20004;-73
2024/04/15 03:24:31;;;;;;;7.93;2.35;;;;;;;;;;5487758;26;20356;-73
2024/04/15 03:26:58;;;;;;;5.82;2.03;;;;;;;;;;5520663;25;20124;-72
2024/04/15 03:29:25;;;;;;;7.22;3.28;;;;;;;;;;5510667;25;20361;-72
2024/04/15 03:31:51;;;;;;;7.55;2.42;;;;;;;;;;5487407;26;19998;-73
2024/04/15 03:34:18;;;;;;;6.90;2.25;;;;;;;;;;5488438;26;20459;-73
2024/04/15 03:36:44;;;;;;;6.28;2.35;;;;;;;;;;5501948;26;19997;-73
2024/04/15 03:39:10;;;;;;;7.60;2.85;;;;;;;;;;5524508;25;20005;-74
2024/04/15 03:41:36;;;;;;;5.80;2.38;;;;;;;;;;5487074;26;20081;-73
2024/04/15 03:44:02;;;;;;;8.40;2.50;;;;;;;;;;5500541;26;20077;-73
2024/04/15 03:46:28;;;;;;;11.90;2.72;;;;;;;;;;5523532;25;20014;-73
2024/04/15 03:48:54;;;;;;;6.53;2.28;;;;;;;;;;5506898;25;20008;-73
2024/04/15 03:51:21;;;;;;;6.43;2.50;;;;;;;;;;5511764;25;20010;-73
2024/04/15 03:53:47;;;;;;;12.02;2.97;;;;;;;;;;5487189;26;19998;-72
2024/04/15 03:56:13;;;;;;;6.53;2.70;;;;;;;;;;5523321;25;20329;-73
2024/04/15 03:58:39;;;;;;;5.45;2.40;;;;;;;;;;5507336;25;19998;-72
2024/04/15 04:01:05;;;;;;;4.35;2.17;;;;;;;;;;5488526;26;20009;-72
2024/04/15 04:03:31;;;;;;;6.25;3.03;;;;;;;;;;5492391;25;20039;-72
2024/04/15 04:05:57;;;;;;;5.25;2.95;;;;;;;;;;5500003;25;20347;-73
2024/04/15 04:08:23;;;;;;;6.50;3.13;;;;;;;;;;5528883;25;20448;-73
2024/04/15 04:10:49;;;;;;;5.30;2.10;;;;;;;;;;5498147;25;20002;-73
2024/04/15 04:13:15;;;;;;;6.43;2.63;;;;;;;;;;5491191;26;20005;-73
2024/04/15 04:15:41;;;;;;;6.00;2.42;;;;;;;;;;5522702;25;20010;-72
2024/04/15 04:18:07;;;;;;;6.35;2.85;;;;;;;;;;5506552;25;19998;-72
2024/04/15 04:20:33;;;;;;;6.22;2.42;;;;;;;;;;5496870;25;20001;-73
2024/04/15 04:22:59;;;;;;;8.13;3.70;;;;;;;;;;5524314;26;20371;-74
2024/04/15 04:25:25;;;;;;;5.88;3.00;;;;;;;;;;5497722;26;20006;-72
2024/04/15 04:27:52;;;;;;;9.55;4.15;;;;;;;;;;5491590;26;20005;-73
2024/04/15 04:30:18;;;;;;;8.43;3.75;;;;;;;;;;5526200;25;20065;-73
2024/04/15 04:32:44;;;;;;;12.10;4.03;;;;;;;;;;5507020;25;20006;-72
2024/04/15 04:35:10;;;;;;;9.82;4.05;;;;;;;;;;5489923;26;19994;-74
2024/04/15 04:37:36;;;;;;;8.82;3.92;;;;;;;;;;5522059;26;20001;-73
2024/04/15 04:40:02;;;;;;;12.23;4.85;;;;;;;;;;5510257;25;20105;-73
2024/04/15 04:42:28;;;;;;;14.38;4.30;;;;;;;;;;5489272;26;20400;-73
2024/04/15 04:44:55;;;;;;;6.63;3.78;;;;;;;;;;5517219;25;19997;-74
2024/04/15 04:47:21;;;;;;;10.77;4.80;;;;;;;;;;5531481;25;20016;-78
2024/04/15 04:49:51;;;;;;;10.57;4.28;;;;;;;;;;5491447;26;20074;-77
2024/04/15 04:52:17;;;;;;;10.80;3.50;;;;;;;;;;5509136;26;19998;-76
2024/04/15 04:54:44;;;;;;;6.00;3.33;;;;;;;;;;5499130;26;20014;-77
2024/04/15 04:57:10;;;;;;;14.77;7.95;;;;;;;;;;5493864;26;20461;-77
2024/04/15 04:59:37;;;;;;;10.52;4.13;;;;;;;;;;5519781;26;20095;-75
2024/04/15 05:02:04;;;;;;;9.18;4.50;;;;;;;;;;5531011;25;19997;-78
2024/04/15 05:04:30;;;;;;;7.10;4.45;;;;;;;;;;5528234;26;20409;-77
2024/04/15 05:06:56;;;;;;;8.57;4.32;;;;;;;;;;5511393;26;20081;-77
2024/04/15 05:09:22;;;;;;;11.80;5.00;;;;;;;;;;5512615;26;20045;-75
2024/04/15 05:11:49;;;;;;;9.15;4.07;;;;;;;;;;5524549;25;20095;-73
2024/04/15 05:14:15;;;;;;;9.43;4.53;;;;;;;;;;5524733;25;20011;-74
2024/04/15 05:16:41;;;;;;;8.43;4.25;;;;;;;;;;5492801;25;20345;-76
2024/04/15 05:19:08;;;;;;;10.75;4.80;;;;;;;;;;5495961;26;20009;-75
2024/04/15 05:21:35;;;;;;;7.25;3.80;;;;;;;;;;5503610;26;20330;-78
2024/04/15 05:24:01;;;;;;;6.45;3.50;;;;;;;;;;5527480;26;20024;-77
2024/04/15 05:26:27;;;;;;;7.00;3.78;;;;;;;;;;5527068;25;19998;-74
2024/04/15 05:28:58;;;;;;;7.85;3.75;;;;;;;;;;5526319;25;20009;-78
2024/04/15 05:31:24;;;;;;;7.90;3.92;;;;;;;;;;5495412;26;20009;-77
2024/04/15 05:33:50;;;;;;;10.68;3.95;;;;;;;;;;5493920;26;20066;-77
2024/04/15 05:36:16;;;;;;;10.23;4.03;;;;;;;;;;5495257;26;20097;-77
2024/04/15 05:38:42;;;;;;;10.55;4.63;;;;;;;;;;5495423;26;19998;-80
2024/04/15 05:41:09;;;;;;;4.93;3.20;;;;;;;;;;5493726;26;20066;-76
2024/04/15 05:43:35;;;;;;;10.38;4.13;;;;;;;;;;5493935;26;19993;-80
2024/04/15 05:46:01;;;;;;;8.65;3.53;;;;;;;;;;5495061;26;20463;-76
2024/04/15 05:48:27;;;;;;;9.35;3.90;;;;;;;;;;5488065;26;20361;-75
2024/04/15 05:50:53;;;;;;;5.55;4.00;;;;;;;;;;5487781;26;20010;-74
2024/04/15 05:53:19;;;;;;;10.38;4.28;;;;;;;;;;5487016;26;20066;-73
2024/04/15 05:55:45;;;;;;;8.25;4.00;;;;;;;;;;5488790;26;20448;-74
2024/04/15 05:58:11;;;;;;;11.68;4.10;;;;;;;;;;5487272;26;20002;-75
2024/04/15 06:00:38;;;;;;;7.80;4.93;;;;;;;;;;5487146;26;20170;-75
2024/04/15 06:03:04;;;;;;;14.55;4.10;;;;;;;;;;5504499;25;20335;-76
2024/04/15 06:05:30;;;;;;;10.07;4.05;;;;;;;;;;5509137;26;20328;-75
2024/04/15 06:07:56;;;;;;;13.05;4.03;;;;;;;;;;5506322;25;19998;-74
2024/04/15 06:10:22;;;;;;;9.57;3.00;;;;;;;;;;5525501;26;20073;-75
2024/04/15 06:12:48;;;;;;;6.70;3.65;;;;;;;;;;5523408;25;20071;-75
2024/04/15 06:15:14;;;;;;;8.57;3.17;;;;;;;;;;5526547;25;20001;-75
2024/04/15 06:17:40;;;;;;;7.88;3.28;;;;;;;;;;5526464;26;19994;-76
2024/04/15 06:20:06;;;;;;;10.07;3.72;;;;;;;;;;5524159;25;20458;-75
2024/04/15 06:22:32;;;;;;;7.50;3.38;;;;;;;;;;5525355;26;19993;-76
2024/04/15 06:24:58;;;;;;;8.88;4.25;;;;;;;;;;5525956;26;20336;-75
2024/04/15 06:27:24;;;;;;;11.95;4.00;;;;;;;;;;5523636;25;20479;-76
2024/04/15 06:29:50;;;;;;;8.00;3.20;;;;;;;;;;5525506;25;19993;-76
2024/04/15 06:32:17;;;;;;;6.65;3.30;;;;;;;;;;5525336;25;20452;-75
2024/04/15 06:34:43;;;;;;;9.80;3.60;;;;;;;;;;5526668;26;20339;-76
2024/04/15 06:37:09;;;;;;;8.50;3.83;;;;;;;;;;5527570;25;20001;-76
2024/04/15 06:39:35;;;;;;;6.07;3.08;;;;;;;;;;5525951;25;20029;-76
2024/04/15 06:42:01;;;;;;;4.82;3.03;;;;;;;;;;5525165;26;20011;-76
2024/04/15 06:44:27;;;;;;;9.43;3.78;;;;;;;;;;5523458;26;20009;-76
2024/04/15 06:46:54;;;;;;;9.60;3.42;;;;;;;;;;5523097;26;19998;-76
2024/04/15 06:49:20;;;;;;;6.75;2.90;;;;;;;;;;5525619;26;19997;-76
2024/04/15 06:51:46;;;;;;;13.57;3.03;;;;;;;;;;5522160;26;19994;-75
2024/04/15 06:54:12;;;;;;;9.85;2.95;;;;;;;;;;5522158;26;20025;-75
2024/04/15 06:56:38;;;;;;;10.57;3.30;;;;;;;;;;5524954;26;19997;-76
2024/04/15 06:59:04;;;;;;;8.38;3.80;;;;;;;;;;5526889;26;20003;-75
2024/04/15 07:01:30;;;;;;;8.57;3.38;;;;;;;;;;5522661;26;20009;-75
2024/04/15 07:03:56;;;;;;;11.38;4.10;;;;;;;;;;5525396;26;20065;-74
2024/04/15 07:06:24;;;;;;;9.23;4.47;;;;;;;;;;5526781;25;20009;-74
2024/04/15 07:08:50;;;;;;;12.55;3.63;;;;;;;;;;5526204;26;20506;-75
2024/04/15 07:11:16;;;;;;;10.77;4.00;;;;;;;;;;5528717;25;20008;-76
2024/04/15 07:13:42;;;;;;;12.30;5.28;;;;;;;;;;5528487;25;20009;-75
2024/04/15 07:16:09;;;;;;;10.48;4.20;;;;;;;;;;5530109;26;20005;-75
2024/04/15 07:18:35;;;;;;;11.40;3.88;;;;;;;;;;5527384;25;20053;-75
2024/04/15 07:21:01;;;;;;;11.40;3.92;;;;;;;;;;5529927;25;20513;-74
2024/04/15 07:23:27;;;;;;;7.72;3.67;;;;;;;;;;5531820;25;20468;-76
2024/04/15 07:26:00;;;;;;;9.95;4.00;;;;;;;;;;5529769;26;20005;-75
2024/04/15 07:28:27;;;;;;;8.60;3.65;;;;;;;;;;5531592;26;20009;-76
2024/04/15 07:31:11;;;;;;;11.73;4.10;;;;;;;;;;5528491;26;19997;-75
2024/04/15 07:33:37;;;;;;;7.78;3.92;;;;;;;;;;5528632;26;20065;-75
2024/04/15 07:36:03;;;;;;;10.60;3.85;;;;;;;;;;5530331;26;19994;-75
2024/04/15 07:38:29;;;;;;;10.55;4.03;;;;;;;;;;5528909;26;19998;-75
2024/04/15 07:40:59;;;;;;;5.82;3.50;;;;;;;;;;5523522;26;20017;-74
2024/04/15 07:43:25;;;;;;;9.70;3.05;;;;;;;;;;5531995;26;20300;-74
2024/04/15 07:45:51;;;;;;;4.13;2.35;;;;;;;;;;5530427;26;20009;-75
2024/04/15 07:48:17;;;;;;;14.85;3.15;;;;;;;;;;5530168;26;20005;-76
2024/04/15 07:50:43;;;;;;;15.98;2.75;;;;;;;;;;5523412;26;20508;-76
2024/04/15 07:53:09;;;;;;;8.07;2.90;;;;;;;;;;5522041;26;20011;-76
2024/04/15 07:55:35;;;;;;;6.97;2.90;;;;;;;;;;5521831;26;20459;-75
2024/04/15 07:58:01;;;;;;;7.05;2.90;;;;;;;;;;5523588;26;20004;-75
2024/04/15 08:00:27;;;;;;;14.10;3.53;;;;;;;;;;5523296;26;20034;-76
2024/04/15 08:02:53;;;;;;;9.07;4.00;;;;;;;;;;5521845;26;20101;-75
2024/04/15 08:05:20;;;;;;;8.57;4.07;;;;;;;;;;5523352;26;19998;-76
2024/04/15 08:07:46;;;;;;;6.40;2.80;;;;;;;;;;5521918;26;20472;-74
2024/04/15 08:10:12;;;;;;;10.55;4.05;;;;;;;;;;5523140;26;20005;-76
2024/04/15 08:12:38;;;;;;;6.05;3.70;;;;;;;;;;5520606;26;20002;-74
2024/04/15 08:15:04;;;;;;;12.38;4.10;;;;;;;;;;5521640;26;20009;-76
2024/04/15 08:17:30;;;;;;;5.35;2.83;;;;;;;;;;5521936;26;19997;-76
2024/04/15 08:19:56;;;;;;;7.32;2.08;;;;;;;;;;5522252;26;19997;-76
2024/04/15 08:22:22;;;;;;;6.30;1.77;;;;;;;;;;5522278;26;20349;-76
2024/04/15 08:24:49;;;;;;;5.68;1.38;;;;;;;;;;5523299;26;20408;-75
2024/04/15 08:27:15;;;;;;;5.60;1.35;;;;;;;;;;5520837;26;20008;-75
2024/04/15 08:29:42;;;;;;;5.78;0.73;;;;;;;;;;5523430;26;20053;-76
2024/04/15 08:32:08;;;;;;;1.83;0.80;;;;;;;;;;5522073;26;20329;-75
2024/04/15 08:34:34;;;;;;;8.35;1.02;;;;;;;;;;5521873;26;19993;-76
2024/04/15 08:37:00;;;;;;;2.65;0.70;;;;;;;;;;5522558;26;20030;-76
2024/04/15 08:39:26;;;;;;;5.07;1.10;;;;;;;;;;5521893;26;19994;-76
2024/04/15 08:41:54;;;;;;;4.20;0.55;;;;;;;;;;5523402;26;20001;-75
2024/04/15 08:44:24;;;;;;;4.55;1.23;;;;;;;;;;5528868;26;20456;-75
2024/04/15 08:46:52;;;;;;;2.95;0.85;;;;;;;;;;5528723;26;20021;-76
2024/04/15 08:49:18;;;;;;;6.20;0.80;;;;;;;;;;5526714;26;19997;-76
2024/04/15 08:51:44;;;;;;;22.25;3.53;;;;;;;;;;5526094;26;19995;-76
2024/04/15 08:54:10;;;;;;;3.50;0.90;;;;;;;;;;5524741;26;20068;-74
2024/04/15 08:56:39;;;;;;;4.18;1.17;;;;;;;;;;5528326;26;20005;-76
2024/04/15 08:59:06;;;;;;;4.40;1.05;;;;;;;;;;5529190;26;20159;-75
2024/04/15 09:01:32;;;;;;;4.50;1.20;;;;;;;;;;5529902;26;20004;-76
2024/04/15 09:03:59;;;;;;;2.65;0.82;;;;;;;;;;5530535;26;19993;-75
2024/04/15 09:06:25;;;;;;;3.70;0.95;;;;;;;;;;5529318;26;19998;-75
2024/04/15 09:08:51;;;;;;;3.33;0.90;;;;;;;;;;5527182;26;19997;-75
2024/04/15 09:11:17;;;;;;;6.25;0.85;;;;;;;;;;5524568;26;20008;-75
2024/04/15 09:13:44;;;;;;;6.90;1.38;;;;;;;;;;5525250;26;20009;-74
2024/04/15 09:16:10;;;;;;;2.28;0.90;;;;;;;;;;5524039;26;20112;-76
2024/04/15 09:18:36;;;;;;;5.30;0.70;;;;;;;;;;5528811;26;20043;-75
2024/04/15 09:21:02;;;;;;;6.10;1.15;;;;;;;;;;5527448;26;20397;-76
2024/04/15 09:23:29;;;;;;;7.90;1.10;;;;;;;;;;5529516;26;20000;-74
2024/04/15 09:25:55;;;;;;;7.95;0.95;;;;;;;;;;5527145;26;20012;-74
2024/04/15 09:28:21;;;;;;;5.60;1.67;;;;;;;;;;5529865;26;19997;-75
2024/04/15 09:30:47;;;;;;;4.40;0.70;;;;;;;;;;5510963;25;20005;-76
2024/04/15 09:33:14;;;;;;;4.47;1.20;;;;;;;;;;5505217;26;19999;-75
2024/04/15 09:35:40;;;;;;;7.05;0.80;;;;;;;;;;5510852;26;19998;-75
2024/04/15 09:38:09;;;;;;;10.27;1.20;;;;;;;;;;5490861;26;20349;-76
2024/04/15 09:40:36;;;;;;;5.78;0.90;;;;;;;;;;5488164;26;19998;-75
2024/04/15 09:43:03;;;;;;;7.53;1.75;;;;;;;;;;5489799;26;20006;-76
2024/04/15 09:45:29;;;;;;;5.60;1.35;;;;;;;;;;5518982;25;19997;-68
2024/04/15 09:47:56;;;;;;;6.05;1.08;;;;;;;;;;5524935;26;20359;-68
2024/04/15 09:50:23;;;;;;;5.72;0.70;;;;;;;;;;5523263;26;20008;-67
2024/04/15 09:52:59;;;;;;;4.88;1.13;;;;;;;;;;5507311;25;20366;-75
2024/04/15 09:55:30;;;;;;;19.63;1.58;;;;;;;;;;5491630;26;19990;-76
2024/04/15 09:57:58;;;;;;;3.67;1.00;;;;;;;;;;5490244;26;20002;-76
2024/04/15 10:00:25;;;;;;;5.78;0.88;;;;;;;;;;5491178;26;19994;-75
2024/04/15 10:03:14;;;;;;;6.60;1.00;;;;;;;;;;5491881;26;19994;-75
2024/04/15 10:05:41;;;;;;;8.25;0.93;;;;;;;;;;5493053;26;20058;-76
2024/04/15 10:08:07;;;;;;;5.47;0.82;;;;;;;;;;5490407;26;19998;-75
2024/04/15 10:10:33;;;;;;;2.55;0.70;;;;;;;;;;5492740;26;19994;-74
2024/04/15 10:13:02;;;;;;;6.18;0.75;;;;;;;;;;5490360;26;19998;-73
2024/04/15 10:15:28;;;;;;;9.52;1.00;;;;;;;;;;5489873;26;19994;-74
2024/04/15 10:17:55;;;;;;;11.05;0.82;;;;;;;;;;5489161;26;19994;-75
2024/04/15 10:20:26;;;;;;;6.75;0.80;;;;;;;;;;5491428;26;20009;-74
2024/04/15 10:22:57;;;;;;;2.05;0.47;;;;;;;;;;5491139;26;20080;-75
2024/04/15 10:25:23;;;;;;;5.82;0.65;;;;;;;;;;5489916;26;20002;-77
2024/04/15 10:27:49;;;;;;;3.20;0.30;;;;;;;;;;5492486;26;19994;-75
2024/04/15 10:30:18;;;;;;;7.28;0.77;;;;;;;;;;5489202;26;20420;-75
2024/04/15 10:32:45;;;;;;;6.15;0.73;;;;;;;;;;5489882;26;19994;-75
2024/04/15 10:35:21;;;;;;;6.07;0.88;;;;;;;;;;5490109;26;19998;-75
2024/04/15 10:37:50;;;;;;;5.68;0.65;;;;;;;;;;5488936;26;20009;-74
2024/04/15 10:40:16;;;;;;;7.53;0.80;;;;;;;;;;5491917;26;20009;-75
2024/04/15 10:42:42;;;;;;;6.75;0.60;;;;;;;;;;5489158;26;20009;-75
2024/04/15 10:45:15;;;;;;;2.63;0.73;;;;;;;;;;5492043;26;20070;-75
2024/04/15 10:47:41;;;;;;;2.45;0.95;;;;;;;;;;5491230;26;19998;-75
2024/04/15 10:50:09;;;;;;;8.00;0.90;;;;;;;;;;5491142;26;20005;-76
2024/04/15 10:52:35;;;;;;;3.92;0.50;;;;;;;;;;5489786;26;19997;-76
2024/04/15 10:55:01;;;;;;;2.42;0.75;;;;;;;;;;5489658;26;20061;-76
2024/04/15 10:57:27;;;;;;;3.83;0.50;;;;;;;;;;5492597;26;20472;-75
2024/04/15 10:59:53;;;;;;;5.93;0.60;;;;;;;;;;5526171;25;20420;-75
2024/04/15 11:02:19;;;;;;;5.43;0.50;;;;;;;;;;5525611;25;20010;-76
2024/04/15 11:04:47;;;;;;;5.93;0.60;;;;;;;;;;5522904;25;20001;-76
2024/04/15 11:07:13;;;;;;;3.03;0.30;;;;;;;;;;5523921;25;20363;-74
2024/04/15 11:09:40;;;;;;;9.15;1.25;;;;;;;;;;5523177;26;19998;-75
2024/04/15 11:12:07;;;;;;;6.97;0.70;;;;;;;;;;5526156;25;20006;-75
2024/04/15 11:14:33;;;;;;;3.92;0.60;;;;;;;;;;5526746;25;20005;-75
2024/04/15 11:17:00;;;;;;;8.13;0.73;;;;;;;;;;5525912;25;19997;-75
2024/04/15 11:19:26;;;;;;;3.97;0.63;;;;;;;;;;5526268;25;19993;-75
2024/04/15 11:22:02;;;;;;;3.05;0.75;;;;;;;;;;5526065;26;20006;-75
2024/04/15 11:24:28;;;;;;;4.35;0.90;;;;;;;;;;5524746;25;19994;-75
2024/04/15 11:26:54;;;;;;;3.50;0.40;;;;;;;;;;5526010;26;20004;-75
2024/04/15 11:29:20;;;;;;;2.83;0.50;;;;;;;;;;5526639;25;19993;-75
2024/04/15 11:31:46;;;;;;;5.43;1.13;;;;;;;;;;5526398;25;20197;-75
2024/04/15 11:34:12;;;;;;;4.70;0.50;;;;;;;;;;5526782;25;20448;-75
2024/04/15 11:36:40;;;;;;;2.08;0.95;;;;;;;;;;5527244;26;20123;-76
2024/04/15 11:39:06;;;;;;;5.03;0.50;;;;;;;;;;5527928;26;20581;-75
2024/04/15 11:41:33;;;;;;;11.43;0.63;;;;;;;;;;5532452;25;20100;-75
2024/04/15 11:44:00;;;;;;;4.93;0.50;;;;;;;;;;5529807;26;20005;-75
2024/04/15 11:46:26;;;;;;;4.05;0.65;;;;;;;;;;5530256;25;20118;-76
2024/04/15 11:48:53;;;;;;;11.90;1.02;;;;;;;;;;5530312;25;19997;-75
2024/04/15 11:51:19;;;;;;;4.35;0.90;;;;;;;;;;5527587;25;20059;-76
2024/04/15 11:53:46;;;;;;;3.38;0.50;;;;;;;;;;5525326;25;20001;-75
2024/04/15 11:56:13;;;;;;;4.47;0.65;;;;;;;;;;5525161;25;20017;-74
2024/04/15 11:58:40;;;;;;;10.45;1.30;;;;;;;;;;5525340;26;19994;-76
2024/04/15 12:01:06;;;;;;;5.03;0.63;;;;;;;;;;5524760;25;20008;-74
2024/04/15 12:03:32;;;;;;;4.38;0.60;;;;;;;;;;5524327;25;20028;-75
2024/04/15 12:05:58;;;;;;;3.67;0.75;;;;;;;;;;5525068;26;20197;-75
2024/04/15 12:08:25;;;;;;;5.40;0.40;;;;;;;;;;5525766;26;20274;-75
2024/04/15 12:10:52;;;;;;;3.78;0.52;;;;;;;;;;5524409;25;19997;-74
2024/04/15 12:13:18;;;;;;;4.40;0.63;;;;;;;;;;5523650;25;20066;-75
2024/04/15 12:15:44;;;;;;;2.90;0.60;;;;;;;;;;5523037;26;19998;-75
2024/04/15 12:18:10;;;;;;;3.20;0.68;;;;;;;;;;5524974;26;19997;-75
2024/04/15 12:20:36;;;;;;;3.03;0.77;;;;;;;;;;5527888;26;20409;-75
2024/04/15 12:23:02;;;;;;;4.47;0.82;;;;;;;;;;5525142;25;20447;-75
2024/04/15 12:25:28;;;;;;;2.85;0.88;;;;;;;;;;5529014;25;20436;-74
2024/04/15 12:27:54;;;;;;;10.55;1.38;;;;;;;;;;5529446;25;20006;-75
2024/04/15 12:30:20;;;;;;;4.43;0.80;;;;;;;;;;5528834;26;20504;-73
2024/04/15 12:32:46;;;;;;;3.05;0.73;;;;;;;;;;5526006;25;20003;-75
2024/04/15 12:35:12;;;;;;;7.97;0.82;;;;;;;;;;5527159;25;19994;-74
2024/04/15 12:37:38;;;;;;;9.38;0.75;;;;;;;;;;5527416;25;19997;-75
2024/04/15 12:40:07;;;;;;;4.15;1.25;;;;;;;;;;5528423;26;20004;-74
2024/04/15 12:42:33;;;;;;;4.32;0.70;;;;;;;;;;5526458;26;20004;-76
2024/04/15 12:44:59;;;;;;;4.10;0.47;;;;;;;;;;5528983;25;20002;-74
2024/04/15 12:47:25;;;;;;;6.55;1.42;;;;;;;;;;5526471;25;19994;-74
2024/04/15 12:49:51;;;;;;;3.90;0.85;;;;;;;;;;5528143;26;20344;-75
2024/04/15 12:52:17;;;;;;;3.55;0.82;;;;;;;;;;5528072;25;20042;-76
2024/04/15 12:54:43;;;;;;;5.13;1.40;;;;;;;;;;5528442;25;19997;-76
2024/04/15 12:57:10;;;;;;;7.65;0.80;;;;;;;;;;5528386;26;19997;-74
2024/04/15 12:59:36;;;;;;;6.13;0.98;;;;;;;;;;5527729;25;20039;-77
2024/04/15 13:02:02;;;;;;;12.38;0.82;;;;;;;;;;5527040;25;20042;-74
2024/04/15 13:04:28;;;;;;;8.45;0.88;;;;;;;;;;5527344;26;20389;-76
2024/04/15 13:06:54;;;;;;;7.25;0.95;;;;;;;;;;5527266;25;20336;-76
2024/04/15 13:09:20;;;;;;;2.92;0.77;;;;;;;;;;5526894;25;19997;-75
2024/04/15 13:11:46;;;;;;;7.32;0.85;;;;;;;;;;5526657;25;20013;-74
2024/04/15 13:14:12;;;;;;;5.72;0.95;;;;;;;;;;5527342;26;20008;-75
2024/04/15 13:16:38;;;;;;;6.50;0.90;;;;;;;;;;5529378;26;19997;-76
2024/04/15 13:19:04;;;;;;;8.60;0.70;;;;;;;;;;5528705;25;20400;-76
2024/04/15 13:21:30;;;;;;;2.60;0.77;;;;;;;;;;5527864;26;19997;-76
2024/04/15 13:23:56;;;;;;;6.65;0.82;;;;;;;;;;5527074;25;20008;-75
2024/04/15 13:26:22;;;;;;;10.80;0.93;;;;;;;;;;5525827;26;19990;-75
2024/04/15 13:28:48;;;;;;;5.18;1.40;;;;;;;;;;5527263;26;19993;-72
2024/04/15 13:31:14;;;;;;;6.93;0.80;;;;;;;;;;5527106;25;20005;-73
2024/04/15 13:33:40;;;;;;;7.70;0.77;;;;;;;;;;5528557;25;19993;-71
2024/04/15 13:36:06;;;;;;;15.25;0.95;;;;;;;;;;5535656;26;20021;-73
2024/04/15 13:38:33;;;;;;;14.95;1.67;;;;;;;;;;5530601;25;19997;-71
2024/04/15 13:40:59;;;;;;;5.32;0.52;;;;;;;;;;5534671;25;19998;-75
2024/04/15 13:43:25;;;;;;;4.25;0.98;;;;;;;;;;5529228;25;20024;-76
2024/04/15 13:45:51;;;;;;;5.95;1.00;;;;;;;;;;5529799;25;20009;-77
2024/04/15 13:48:17;;;;;;;3.00;0.47;;;;;;;;;;5527490;25;20066;-76
2024/04/15 13:50:43;;;;;;;16.45;1.13;;;;;;;;;;5526872;25;19997;-75
2024/04/15 13:53:09;;;;;;;4.28;0.77;;;;;;;;;;5526769;25;19993;-76
2024/04/15 13:55:36;;;;;;;3.55;0.60;;;;;;;;;;5527240;25;19997;-77
2024/04/15 13:58:03;;;;;;;5.25;0.50;;;;;;;;;;5528237;25;20031;-76
2024/04/15 14:00:29;;;;;;;5.55;0.63;;;;;;;;;;5526579;25;20378;-77
2024/04/15 14:02:55;;;;;;;7.00;0.75;;;;;;;;;;5528366;25;19993;-76
2024/04/15 14:05:21;;;;;;;12.95;0.80;;;;;;;;;;5529775;25;20050;-76
2024/04/15 14:07:47;;;;;;;6.85;0.77;;;;;;;;;;5527094;25;19997;-77
2024/04/15 14:10:14;;;;;;;10.00;0.73;;;;;;;;;;5526732;25;20025;-76
2024/04/15 14:12:40;;;;;;;9.27;1.00;;;;;;;;;;5527128;25;19997;-77
2024/04/15 14:15:07;;;;;;;7.20;0.70;;;;;;;;;;5528321;25;20045;-76
2024/04/15 14:17:33;;;;;;;7.88;0.65;;;;;;;;;;5529259;25;20001;-76
2024/04/15 14:19:59;;;;;;;8.80;0.73;;;;;;;;;;5525148;25;19997;-67
2024/04/15 14:22:26;;;;;;;9.57;0.65;;;;;;;;;;5524227;25;20061;-68
2024/04/15 14:24:52;;;;;;;11.02;0.98;;;;;;;;;;5524669;25;20005;-68
2024/04/15 14:27:18;;;;;;;3.80;0.50;;;;;;;;;;5524902;25;20009;-69
2024/04/15 14:29:44;;;;;;;6.63;0.80;;;;;;;;;;5525126;25;19993;-68
2024/04/15 14:32:10;;;;;;;39.15;3.25;;;;;;;;;;5524144;25;20049;-68
2024/04/15 14:34:36;;;;;;;5.63;1.00;;;;;;;;;;5524768;25;20004;-74
2024/04/15 14:37:03;;;;;;;10.50;0.90;;;;;;;;;;5523137;25;19998;-74